Time;durP1;ratioP1;P1;durP2;ratioP2;P2;SDS_P1;SDS_P2;PMS_P1;PMS_P2;Temp;Humidity;BMP_temperature;BMP_pressure;BME280_temperature;BME280_humidity;BME280_pressure;Samples;Min_cycle;Max_cycle;Signal;HPM_P1;HPM_P2
2022/06/18 00:01:09;;;;;;;9.18;4.67;;;;;;;17.54;65.54;99697.25;1801485;79;20949;-65
2022/06/18 00:03:35;;;;;;;7.75;4.67;;;;;;;17.52;66.16;99697.86;1804643;79;21499;-61
2022/06/18 00:06:01;;;;;;;9.08;5.20;;;;;;;17.53;65.73;99698.20;1813031;79;20981;-61
2022/06/18 00:08:29;;;;;;;5.37;4.10;;;;;;;17.52;65.50;99689.88;1815888;79;21482;-64
2022/06/18 00:13:40;;;;;;;10.50;4.50;;;;;;;17.50;65.94;99685.62;1783243;79;20937;-59
2022/06/18 00:16:14;;;;;;;8.58;4.60;;;;;;;17.48;65.57;99685.74;1816032;79;20985;-61
2022/06/18 00:18:40;;;;;;;6.87;4.30;;;;;;;17.45;65.65;99684.67;1815746;79;20989;-60
2022/06/18 00:21:08;;;;;;;9.75;4.25;;;;;;;17.42;65.33;99680.91;1815990;79;20988;-63
2022/06/18 00:23:37;;;;;;;10.72;4.00;;;;;;;17.39;64.98;99678.48;1815979;79;20969;-63
2022/06/18 00:26:03;;;;;;;11.45;4.35;;;;;;;17.36;65.52;99677.41;1815135;79;20984;-60
2022/06/18 00:28:32;;;;;;;8.13;4.55;;;;;;;17.34;65.55;99682.01;1815847;79;20973;-60
2022/06/18 00:30:59;;;;;;;11.43;4.62;;;;;;;17.32;65.49;99677.27;1815799;79;20993;-65
2022/06/18 00:33:25;;;;;;;6.78;4.12;;;;;;;17.28;65.32;99671.34;1816202;79;21019;-62
2022/06/18 00:35:58;;;;;;;4.87;4.08;;;;;;;17.26;65.60;99670.16;1815940;79;20988;-60
2022/06/18 00:38:31;;;;;;;9.23;3.92;;;;;;;17.23;65.42;99674.37;1815846;79;21521;-65
2022/06/18 00:40:59;;;;;;;8.75;4.45;;;;;;;17.23;65.22;99673.53;1815734;79;21470;-61
2022/06/18 00:43:42;;;;;;;10.28;3.90;;;;;;;17.17;65.14;99674.85;1815818;79;20973;-61
2022/06/18 00:46:15;;;;;;;6.97;4.50;;;;;;;17.16;65.38;99680.28;1814703;79;20981;-64
2022/06/18 00:48:56;;;;;;;6.78;4.20;;;;;;;17.11;65.91;99675.30;1815241;79;20984;-59
2022/06/18 00:51:32;;;;;;;9.35;4.53;;;;;;;17.09;66.15;99670.59;1814614;79;21620;-63
2022/06/18 00:54:20;;;;;;;11.93;4.37;;;;;;;17.05;66.43;99683.75;1814656;79;20949;-64
2022/06/18 00:57:04;;;;;;;5.05;4.00;;;;;;;17.01;66.04;99683.63;1815799;79;20957;-61
2022/06/18 00:59:44;;;;;;;7.97;4.22;;;;;;;16.96;66.42;99676.48;1815671;79;21485;-62
2022/06/18 01:02:21;;;;;;;8.78;4.42;;;;;;;16.93;66.53;99678.03;1815782;79;21494;-66
2022/06/18 01:04:47;;;;;;;11.43;4.42;;;;;;;16.88;66.63;99677.91;1811277;79;20973;-66
2022/06/18 01:07:36;;;;;;;8.17;4.27;;;;;;;16.85;66.31;99676.80;1780468;80;20998;-58
2022/06/18 01:10:06;;;;;;;11.05;4.00;;;;;;;16.84;66.47;99669.78;1780135;80;20975;-64
2022/06/18 01:12:32;;;;;;;9.08;3.80;;;;;;;16.84;66.85;99672.44;1780339;80;21452;-63
2022/06/18 01:15:06;;;;;;;9.03;3.52;;;;;;;16.82;66.37;99673.00;1780444;80;20967;-64
2022/06/18 01:17:34;;;;;;;7.42;3.67;;;;;;;16.78;66.67;99668.89;1780201;79;21468;-64
2022/06/18 01:20:04;;;;;;;6.90;3.52;;;;;;;16.77;66.96;99672.98;1751811;80;21495;-65
2022/06/18 01:22:57;;;;;;;9.88;4.25;;;;;;;16.76;67.25;99667.33;1780082;80;21460;-60
2022/06/18 01:25:25;;;;;;;12.25;3.85;;;;;;;16.75;67.23;99663.80;1780183;80;20995;-62
2022/06/18 01:27:54;;;;;;;8.78;4.00;;;;;;;16.75;66.71;99661.63;1780162;80;21154;-64
2022/06/18 01:30:21;;;;;;;7.65;4.08;;;;;;;16.75;66.68;99662.96;1780178;80;20970;-68
2022/06/18 01:32:52;;;;;;;6.30;3.98;;;;;;;16.74;66.97;99659.95;1780153;80;20982;-60
2022/06/18 01:35:20;;;;;;;5.78;3.90;;;;;;;16.72;66.81;99654.76;1780094;79;21019;-64
2022/06/18 01:37:46;;;;;;;7.03;4.03;;;;;;;16.74;66.59;99653.32;1780224;80;20990;-64
2022/06/18 01:40:18;;;;;;;5.35;3.83;;;;;;;16.73;66.77;99653.78;1780491;80;20990;-68
2022/06/18 01:42:47;;;;;;;5.17;3.85;;;;;;;16.69;67.02;99658.47;1779342;79;20975;-60
2022/06/18 01:45:24;;;;;;;9.00;3.92;;;;;;;16.67;66.78;99656.41;1780175;80;21829;-62
2022/06/18 01:48:16;;;;;;;7.20;4.08;;;;;;;16.66;66.72;99650.76;1780390;80;21021;-67
2022/06/18 01:50:53;;;;;;;7.55;4.40;;;;;;;16.63;66.59;99652.30;1780215;80;21464;-65
2022/06/18 01:53:33;;;;;;;8.03;4.40;;;;;;;16.59;66.63;99640.69;1780379;80;20979;-61
2022/06/18 01:56:19;;;;;;;5.05;3.65;;;;;;;16.56;66.62;99639.61;1779980;80;20985;-66
2022/06/18 01:58:56;;;;;;;6.62;4.80;;;;;;;16.51;66.82;99639.45;1780180;80;21030;-67
2022/06/18 02:01:25;;;;;;;;;;;;;;;16.46;67.09;99641.63;1782306;80;20955;-65
2022/06/18 02:03:54;;;;;;;5.97;4.33;;;;;;;16.38;67.54;99642.66;1780150;80;20104;-65
2022/06/18 02:06:20;;;;;;;8.00;4.97;;;;;;;16.32;66.96;99631.17;1795873;79;21512;-65
2022/06/18 02:08:46;;;;;;;12.20;4.45;;;;;;;16.29;67.19;99634.89;1804401;79;21009;-67
2022/06/18 02:11:15;;;;;;;10.85;5.12;;;;;;;16.25;67.62;99631.27;1804494;79;21464;-68
2022/06/18 02:14:01;;;;;;;9.18;5.00;;;;;;;16.20;67.55;99644.85;1804440;79;21516;-60
2022/06/18 02:16:31;;;;;;;6.97;4.60;;;;;;;16.16;68.19;99639.89;1804393;79;21009;-62
2022/06/18 02:18:59;;;;;;;8.58;4.85;;;;;;;16.11;68.23;99637.56;1804595;79;20977;-67
2022/06/18 02:21:25;;;;;;;10.48;5.10;;;;;;;16.06;68.50;99628.63;1804381;79;20976;-61
2022/06/18 02:23:54;;;;;;;7.62;4.95;;;;;;;16.03;69.08;99634.16;1804667;79;20953;-62
2022/06/18 02:26:25;;;;;;;12.37;4.85;;;;;;;16.02;68.56;99623.16;1804144;79;21016;-64
2022/06/18 02:28:53;;;;;;;7.45;5.05;;;;;;;16.00;68.98;99627.73;1804368;79;20997;-66
2022/06/18 02:31:24;;;;;;;11.25;5.25;;;;;;;15.99;68.94;99622.08;1804288;79;21507;-66
2022/06/18 02:33:55;;;;;;;10.13;5.25;;;;;;;15.97;68.93;99622.67;1804495;79;20997;-63
2022/06/18 02:36:34;;;;;;;8.80;5.20;;;;;;;15.93;69.46;99622.05;1784213;79;21025;-60
2022/06/18 02:39:08;;;;;;;12.30;5.53;;;;;;;15.94;69.24;99622.88;1804362;79;21502;-59
2022/06/18 02:41:41;;;;;;;9.95;5.62;;;;;;;15.93;69.59;99628.67;1700365;81;21344;-63
2022/06/18 02:44:09;;;;;;;8.38;4.85;;;;;;;15.92;69.65;99626.97;1699783;84;20986;-63
2022/06/18 02:46:35;;;;;;;10.45;5.47;;;;;;;15.90;69.41;99625.39;1699933;84;21001;-62
2022/06/18 02:49:04;;;;;;;8.00;4.72;;;;;;;15.86;70.06;99626.09;1699804;84;21010;-58
2022/06/18 02:51:32;;;;;;;8.60;5.03;;;;;;;15.83;70.17;99632.09;1699801;84;21523;-59
2022/06/18 02:53:59;;;;;;;7.42;4.90;;;;;;;15.82;69.86;99629.91;1699878;84;21017;-64
2022/06/18 02:56:25;;;;;;;10.72;4.97;;;;;;;15.81;70.04;99626.90;1699831;84;20997;-64
2022/06/18 02:58:51;;;;;;;10.63;5.33;;;;;;;15.82;69.80;99631.71;1699848;84;20998;-61
2022/06/18 03:01:22;;;;;;;11.20;5.40;;;;;;;15.82;69.92;99639.67;1699991;84;20994;-61
2022/06/18 03:03:55;;;;;;;8.85;5.37;;;;;;;15.84;69.67;99636.42;1700018;84;20996;-66
2022/06/18 03:06:24;;;;;;;11.28;5.62;;;;;;;15.83;69.63;99631.61;1699849;84;21614;-65
2022/06/18 03:08:51;;;;;;;10.00;5.35;;;;;;;15.84;69.55;99638.59;1699815;84;20970;-62
2022/06/18 03:14:05;;;;;;;12.58;5.85;;;;;;;15.79;69.71;99634.12;1699867;84;20978;-58
2022/06/18 03:16:32;;;;;;;7.78;5.53;;;;;;;15.79;69.90;99642.53;1699790;84;21009;-62
2022/06/18 03:19:00;;;;;;;10.05;5.10;;;;;;;15.79;69.65;99642.53;1718700;83;20978;-65
2022/06/18 03:21:41;;;;;;;12.45;5.75;;;;;;;15.78;69.75;99643.02;1734788;83;20989;-63
2022/06/18 03:24:08;;;;;;;10.60;5.67;;;;;;;15.74;69.74;99642.87;1734797;83;21026;-64
2022/06/18 03:26:35;;;;;;;9.50;5.85;;;;;;;15.76;69.41;99644.09;1734941;83;20998;-65
2022/06/18 03:29:03;;;;;;;8.33;5.35;;;;;;;15.71;69.62;99637.27;1734956;83;21002;-64
2022/06/18 03:31:29;;;;;;;7.03;5.30;;;;;;;15.73;70.15;99643.78;1734849;83;21034;-64
2022/06/18 03:33:55;;;;;;;10.45;5.40;;;;;;;15.73;69.95;99642.00;1734827;83;20979;-63
2022/06/18 03:36:21;;;;;;;8.33;5.58;;;;;;;15.74;70.08;99645.53;1734745;83;20998;-64
2022/06/18 03:38:49;;;;;;;14.50;6.05;;;;;;;15.74;70.50;99643.72;1735081;83;21033;-64
2022/06/18 03:41:16;;;;;;;13.85;6.15;;;;;;;15.74;69.94;99641.55;1734965;83;20999;-63
2022/06/18 03:43:42;;;;;;;9.00;5.75;;;;;;;15.74;69.76;99640.22;1726639;83;21501;-59
2022/06/18 03:46:12;;;;;;;14.20;5.55;;;;;;;15.78;70.06;99643.50;1724697;83;21007;-65
2022/06/18 03:48:52;;;;;;;11.75;5.42;;;;;;;15.80;70.29;99641.10;1724763;83;20999;-61
2022/06/18 03:51:20;;;;;;;14.85;5.50;;;;;;;15.82;69.89;99634.36;1724707;83;21449;-61
2022/06/18 03:53:46;;;;;;;7.97;5.47;;;;;;;15.85;69.88;99636.81;1724851;83;20999;-64
2022/06/18 03:56:19;;;;;;;9.88;5.55;;;;;;;15.86;69.67;99626.55;1724724;83;20991;-61
2022/06/18 03:58:47;;;;;;;9.15;5.78;;;;;;;15.87;69.81;99629.58;1724718;83;20967;-67
2022/06/18 04:01:17;;;;;;;8.45;5.70;;;;;;;15.87;69.64;99626.45;1724651;83;21045;-61
2022/06/18 04:03:43;;;;;;;12.40;5.83;;;;;;;15.88;69.47;99616.22;1724342;83;21516;-66
2022/06/18 04:06:15;;;;;;;11.15;5.67;;;;;;;15.92;69.35;99619.01;1724753;83;21449;-58
2022/06/18 04:08:40;;;;;;;12.50;5.65;;;;;;;15.93;68.80;99620.72;1724595;83;20987;-65
2022/06/18 04:11:08;;;;;;;10.60;5.35;;;;;;;15.95;68.78;99615.77;1724797;83;21509;-64
2022/06/18 04:13:35;;;;;;;10.75;5.58;;;;;;;15.97;68.58;99620.02;1724811;83;21006;-62
2022/06/18 04:16:01;;;;;;;9.70;5.58;;;;;;;16.00;68.25;99616.28;1704265;83;21050;-60
2022/06/18 04:18:27;;;;;;;12.82;5.58;;;;;;;16.02;68.00;99619.18;1724843;83;20991;-63
2022/06/18 04:20:54;;;;;;;11.83;5.45;;;;;;;16.04;68.13;99621.23;1724850;83;20998;-64
2022/06/18 04:23:20;;;;;;;10.32;5.15;;;;;;;16.05;68.05;99611.49;1724939;83;20975;-62
2022/06/18 04:25:46;;;;;;;8.60;5.57;;;;;;;16.06;67.77;99610.52;1725105;83;20999;-62
2022/06/18 04:28:15;;;;;;;8.98;5.28;;;;;;;16.08;68.04;99616.09;1724916;83;20999;-66
2022/06/18 04:30:41;;;;;;;9.63;5.25;;;;;;;16.14;67.70;99620.11;1724894;83;21026;-66
2022/06/18 04:33:08;;;;;;;9.08;5.10;;;;;;;16.18;67.80;99617.59;1724952;83;21006;-64
2022/06/18 04:35:34;;;;;;;10.25;5.55;;;;;;;16.23;67.76;99614.61;1724827;83;21495;-58
2022/06/18 04:38:01;;;;;;;9.75;5.42;;;;;;;16.25;67.81;99621.97;1724992;83;21034;-66
2022/06/18 04:40:33;;;;;;;;;;;;;;;16.30;67.25;99621.16;1727463;83;21034;-62
2022/06/18 04:43:05;;;;;;;6.67;5.05;;;;;;;16.31;66.96;99617.53;1724577;83;20125;-58
2022/06/18 04:45:32;;;;;;;8.63;5.03;;;;;;;16.40;66.84;99610.70;1724556;83;21554;-63
2022/06/18 04:47:59;;;;;;;7.67;4.58;;;;;;;16.47;66.97;99606.63;1724757;82;21585;-62
2022/06/18 04:50:29;;;;;;;8.08;4.87;;;;;;;16.55;66.98;99611.35;1724876;82;21467;-65
2022/06/18 04:52:56;;;;;;;9.05;5.20;;;;;;;16.61;66.49;99604.27;1724590;83;21504;-65
2022/06/18 04:55:22;;;;;;;12.80;5.12;;;;;;;16.68;66.51;99604.14;1724531;82;21499;-63
2022/06/18 04:57:48;;;;;;;8.85;4.72;;;;;;;16.71;65.99;99606.58;1724810;82;21046;-65
2022/06/18 05:00:16;;;;;;;6.70;4.92;;;;;;;16.79;66.08;99598.89;1724538;83;21539;-63
2022/06/18 05:02:42;;;;;;;7.97;4.50;;;;;;;16.84;66.16;99595.41;1724696;83;21002;-63
2022/06/18 05:05:13;;;;;;;7.45;5.22;;;;;;;16.92;65.73;99603.27;1724539;83;21041;-65
2022/06/18 05:07:40;;;;;;;9.25;4.83;;;;;;;16.99;65.78;99598.72;1724572;83;21010;-61
2022/06/18 05:10:07;;;;;;;8.88;4.80;;;;;;;17.04;65.38;99602.34;1724492;83;21503;-59
2022/06/18 05:12:33;;;;;;;9.40;4.78;;;;;;;17.09;65.00;99600.17;1724700;82;21827;-62
2022/06/18 05:14:59;;;;;;;8.08;4.50;;;;;;;17.14;64.75;99595.35;1724570;82;20991;-64
2022/06/18 05:17:29;;;;;;;10.85;5.22;;;;;;;17.21;64.91;99600.55;1724554;82;21003;-62
2022/06/18 05:19:56;;;;;;;11.75;5.10;;;;;;;17.26;64.71;99594.41;1724569;83;21002;-68
2022/06/18 05:22:22;;;;;;;12.40;4.70;;;;;;;17.33;64.83;99597.41;1724502;83;21096;-63
2022/06/18 05:24:48;;;;;;;7.50;5.00;;;;;;;17.39;64.49;99596.08;1724800;82;21453;-64
2022/06/18 05:27:33;;;;;;;7.10;4.55;;;;;;;17.44;64.48;99592.58;1724547;82;21067;-57
2022/06/18 05:30:00;;;;;;;9.65;4.83;;;;;;;17.45;63.96;99597.77;1724564;82;21003;-62
2022/06/18 05:32:26;;;;;;;6.28;4.40;;;;;;;17.52;63.77;99598.14;1724500;83;21492;-61
2022/06/18 05:34:52;;;;;;;6.72;4.65;;;;;;;17.55;63.61;99599.70;1724672;83;20971;-62
2022/06/18 05:37:24;;;;;;;9.93;4.85;;;;;;;17.60;63.56;99598.86;1724482;83;21677;-64
2022/06/18 05:39:50;;;;;;;6.05;4.22;;;;;;;17.63;63.66;99600.79;1724529;83;21035;-61
2022/06/18 05:42:17;;;;;;;7.92;3.80;;;;;;;17.65;63.75;99601.51;1724504;83;20998;-64
2022/06/18 05:44:43;;;;;;;7.28;3.98;;;;;;;17.69;63.73;99593.30;1724711;82;21484;-62
2022/06/18 05:47:15;;;;;;;6.50;4.10;;;;;;;17.75;63.53;99592.79;1724779;83;20990;-63
2022/06/18 05:49:42;;;;;;;7.08;4.22;;;;;;;17.81;63.52;99598.97;1719332;83;20994;-60
2022/06/18 05:52:09;;;;;;;6.12;3.92;;;;;;;17.87;63.58;99594.99;1725036;83;20983;-62
2022/06/18 05:54:35;;;;;;;10.30;4.00;;;;;;;17.93;63.36;99599.31;1724895;83;21042;-61
2022/06/18 05:57:01;;;;;;;7.47;3.98;;;;;;;17.99;63.25;99598.83;1724744;83;21007;-63
2022/06/18 05:59:27;;;;;;;7.67;4.50;;;;;;;18.04;62.24;99602.43;1725096;83;21027;-65
2022/06/18 06:01:56;;;;;;;13.10;4.33;;;;;;;18.14;62.29;99599.89;1724746;83;21010;-65
2022/06/18 06:04:24;;;;;;;8.65;4.62;;;;;;;18.25;62.08;99601.17;1724706;83;21006;-68
2022/06/18 06:06:51;;;;;;;5.65;4.15;;;;;;;18.33;61.51;99605.36;1723957;83;21003;-65
2022/06/18 06:12:05;;;;;;;5.60;3.77;;;;;;;18.53;61.02;99596.21;1724790;83;20970;-64
2022/06/18 06:14:31;;;;;;;4.90;3.77;;;;;;;18.57;60.44;99587.85;1723451;83;20999;-60
2022/06/18 06:16:59;;;;;;;4.83;4.17;;;;;;;18.68;60.57;99589.61;1723894;83;21034;-65
2022/06/18 06:19:25;;;;;;;7.78;4.25;;;;;;;18.77;60.27;99589.30;1724001;83;21078;-61
2022/06/18 06:21:51;;;;;;;7.80;3.58;;;;;;;18.87;59.60;99582.75;1724724;83;20991;-65
2022/06/18 06:24:16;;;;;;;7.37;3.40;;;;;;;18.95;59.40;99580.26;1724727;83;20987;-64
2022/06/18 06:26:42;;;;;;;4.87;3.05;;;;;;;19.06;59.47;99588.17;1724893;83;20995;-62
2022/06/18 06:29:10;;;;;;;8.95;3.35;;;;;;;19.12;59.02;99581.00;1724708;83;21070;-61
2022/06/18 06:31:36;;;;;;;7.65;3.35;;;;;;;19.20;58.48;99586.99;1724759;83;21003;-62
2022/06/18 06:34:02;;;;;;;7.15;3.10;;;;;;;19.26;58.61;99577.12;1724704;83;20998;-65
2022/06/18 06:36:28;;;;;;;7.33;3.42;;;;;;;19.31;58.12;99582.06;1724857;83;21455;-64
2022/06/18 06:38:54;;;;;;;4.62;3.10;;;;;;;19.38;58.23;99580.05;1724837;83;21558;-61
2022/06/18 06:41:24;;;;;;;6.83;3.10;;;;;;;19.46;58.67;99571.87;1725029;83;20964;-61
2022/06/18 06:43:50;;;;;;;6.78;3.27;;;;;;;19.51;57.82;99565.15;1724484;83;21110;-63
2022/06/18 06:46:18;;;;;;;4.37;3.00;;;;;;;19.56;57.43;99559.42;1724960;83;21003;-64
2022/06/18 06:48:44;;;;;;;5.25;2.90;;;;;;;19.72;58.28;99558.91;1724751;83;21050;-65
2022/06/18 06:51:21;;;;;;;7.30;3.17;;;;;;;19.83;57.86;99557.95;1724869;83;21459;-62
2022/06/18 06:53:47;;;;;;;6.35;2.60;;;;;;;19.93;57.53;99558.32;1725038;83;21594;-60
2022/06/18 06:59:00;;;;;;;3.83;2.45;;;;;;;20.15;57.20;99557.71;1724889;83;20983;-63
2022/06/18 07:01:26;;;;;;;4.55;2.70;;;;;;;20.20;55.63;99559.48;1724739;83;21034;-64
2022/06/18 07:03:53;;;;;;;4.87;2.75;;;;;;;20.37;56.56;99557.09;1724978;83;20967;-67
2022/06/18 07:06:19;;;;;;;2.65;2.42;;;;;;;20.56;56.83;99549.06;1724981;83;21002;-68
2022/06/18 07:08:46;;;;;;;3.70;2.60;;;;;;;20.75;56.83;99551.38;1724849;83;20975;-70
2022/06/18 07:11:13;;;;;;;12.47;2.83;;;;;;;20.89;55.69;99545.59;1725015;83;21002;-68
2022/06/18 07:13:39;;;;;;;3.50;2.00;;;;;;;21.02;53.82;99550.11;1724743;83;21015;-70
2022/06/18 07:16:06;;;;;;;2.37;2.12;;;;;;;21.20;55.27;99550.19;1724750;83;21007;-66
2022/06/18 07:18:35;;;;;;;2.87;1.77;;;;;;;21.33;53.69;99551.19;1724929;83;21003;-64
2022/06/18 07:21:05;;;;;;;2.02;1.80;;;;;;;21.55;54.31;99545.14;1703990;83;21504;-60
2022/06/18 07:23:32;;;;;;;7.40;1.98;;;;;;;21.66;52.83;99544.92;1724707;83;21006;-65
2022/06/18 07:25:58;;;;;;;6.15;2.00;;;;;;;21.75;52.55;99542.69;1724916;83;20947;-60
2022/06/18 07:28:25;;;;;;;2.33;1.70;;;;;;;21.83;51.20;99534.75;1725038;83;21045;-64
2022/06/18 07:30:51;;;;;;;1.72;1.62;;;;;;;21.89;50.77;99540.50;1725015;83;21003;-64
2022/06/18 07:33:23;;;;;;;3.47;1.80;;;;;;;21.97;50.80;99541.91;1724747;83;21515;-63
2022/06/18 07:35:49;;;;;;;4.92;2.00;;;;;;;22.08;51.22;99541.67;1724690;83;21500;-66
2022/06/18 07:38:15;;;;;;;4.42;2.00;;;;;;;22.19;51.11;99549.98;1724859;83;21495;-65
2022/06/18 07:40:51;;;;;;;2.47;1.98;;;;;;;22.30;51.36;99538.22;1724728;83;21483;-70
2022/06/18 07:43:34;;;;;;;3.87;1.95;;;;;;;22.31;50.73;99535.91;1724910;83;20959;-64
2022/06/18 07:46:03;;;;;;;1.82;1.72;;;;;;;22.39;51.03;99535.48;1724575;82;21053;-64
2022/06/18 07:48:29;;;;;;;4.80;1.60;;;;;;;22.45;50.78;99536.70;1724577;83;20967;-60
2022/06/18 07:50:55;;;;;;;2.62;1.42;;;;;;;22.49;49.79;99534.04;1724597;82;21050;-59
2022/06/18 07:53:24;;;;;;;6.10;1.50;;;;;;;22.54;48.49;99537.09;1724627;83;21042;-67
2022/06/18 07:55:52;;;;;;;6.28;1.62;;;;;;;22.59;48.12;99541.97;1724624;82;20986;-63
2022/06/18 07:58:18;;;;;;;1.98;1.47;;;;;;;22.65;47.53;99536.48;1724598;83;21022;-70
2022/06/18 08:00:44;;;;;;;2.72;1.65;;;;;;;22.72;46.92;99538.88;1724878;82;20990;-64
2022/06/18 08:03:14;;;;;;;4.62;2.27;;;;;;;22.76;47.32;99537.59;1724614;83;21030;-62
2022/06/18 08:05:41;;;;;;;6.17;1.75;;;;;;;22.81;47.26;99536.59;1724676;83;21011;-64
2022/06/18 08:08:07;;;;;;;1.65;1.35;;;;;;;22.67;46.43;99531.33;1724696;82;21007;-60
2022/06/18 08:10:36;;;;;;;4.95;1.67;;;;;;;22.66;46.89;99528.80;1698464;83;21050;-62
2022/06/18 08:13:03;;;;;;;4.20;1.60;;;;;;;22.65;46.68;99537.83;1724625;82;20979;-63
2022/06/18 08:15:30;;;;;;;5.15;1.85;;;;;;;22.60;46.60;99539.14;1724665;83;21006;-66
2022/06/18 08:17:57;;;;;;;4.50;1.80;;;;;;;22.53;46.25;99535.91;1724741;82;21006;-59
2022/06/18 08:20:24;;;;;;;3.25;1.92;;;;;;;22.58;46.90;99537.63;1724849;82;21137;-62
2022/06/18 08:22:50;;;;;;;;;;;;;;;22.64;47.02;99536.99;1727165;82;21540;-58
2022/06/18 08:25:18;;;;;;;3.72;1.95;;;;;;;22.67;46.84;99541.22;1724744;82;20187;-62
2022/06/18 08:27:46;;;;;;;4.95;2.05;;;;;;;22.82;46.86;99543.66;1724599;82;21006;-59
2022/06/18 08:30:12;;;;;;;2.02;1.77;;;;;;;22.97;47.08;99541.22;1724706;83;20999;-62
2022/06/18 08:32:38;;;;;;;2.05;1.80;;;;;;;23.17;46.93;99544.05;1724714;83;21014;-62
2022/06/18 08:35:05;;;;;;;4.17;2.00;;;;;;;23.32;46.97;99540.28;1724609;82;21050;-59
2022/06/18 08:37:33;;;;;;;6.00;2.15;;;;;;;23.45;47.07;99544.33;1724686;83;21034;-61
2022/06/18 08:39:59;;;;;;;;;;;;;;;23.49;47.18;99545.72;1727319;83;21146;-64
2022/06/18 08:42:42;;;;;;;3.80;1.87;;;;;;;23.50;46.62;99548.24;1724794;82;20105;-62
2022/06/18 08:45:16;;;;;;;2.10;1.60;;;;;;;23.48;47.34;99538.66;1702211;82;21034;-60
2022/06/18 08:48:00;;;;;;;2.47;1.70;;;;;;;23.61;46.93;99530.97;1682548;85;21045;-58
2022/06/18 08:50:50;;;;;;;3.55;1.60;;;;;;;23.73;46.79;99524.81;1681917;85;21062;-65
2022/06/18 08:53:30;;;;;;;2.35;1.60;;;;;;;23.82;46.15;99518.99;1682822;85;21086;-59
2022/06/18 08:56:03;;;;;;;3.15;1.60;;;;;;;23.80;45.57;99520.50;1682950;85;21051;-64
2022/06/18 08:59:06;;;;;;;4.70;1.80;;;;;;;23.88;45.64;99524.52;1682778;85;21543;-65
2022/06/18 09:01:40;;;;;;;3.35;1.50;;;;;;;23.99;45.07;99523.88;1682503;84;21645;-63
2022/06/18 09:04:32;;;;;;;1.45;1.30;;;;;;;24.25;45.52;99527.75;1682891;85;21010;-65
2022/06/18 09:07:36;;;;;;;6.33;1.45;;;;;;;24.40;45.29;99526.61;1682164;85;21034;-59
2022/06/18 09:10:43;;;;;;;3.37;1.82;;;;;;;24.55;44.84;99522.76;1681280;85;21471;-59
2022/06/18 09:13:15;;;;;;;3.02;1.37;;;;;;;24.55;44.03;99520.91;1662220;85;21463;-64
2022/06/18 09:15:46;;;;;;;1.40;1.30;;;;;;;24.80;43.66;99514.98;1681111;85;21021;-60
2022/06/18 09:18:23;;;;;;;2.55;1.50;;;;;;;25.07;43.32;99506.19;1681514;84;21117;-62
2022/06/18 09:20:56;;;;;;;5.28;1.52;;;;;;;25.24;42.93;99507.81;1682916;85;21021;-62
2022/06/18 09:23:36;;;;;;;2.15;1.30;;;;;;;25.50;41.74;99514.77;1681982;85;21486;-64
2022/06/18 09:26:08;;;;;;;4.83;1.30;;;;;;;25.66;40.98;99504.42;1682793;85;21530;-62
2022/06/18 09:28:45;;;;;;;1.87;1.50;;;;;;;26.03;41.37;99496.98;1682765;85;21029;-61
2022/06/18 09:31:31;;;;;;;7.80;1.20;;;;;;;26.24;39.60;99497.63;1682659;85;21010;-63
2022/06/18 09:34:09;;;;;;;1.85;1.10;;;;;;;26.34;38.81;99493.84;1682311;85;21018;-63
2022/06/18 09:36:47;;;;;;;5.92;1.50;;;;;;;26.42;39.54;99495.97;1682743;85;21026;-68
2022/06/18 09:39:24;;;;;;;1.87;1.25;;;;;;;26.59;39.12;99493.11;1682773;85;21472;-61
2022/06/18 09:42:07;;;;;;;4.08;1.15;;;;;;;27.03;38.68;99487.45;1682763;85;21054;-62
2022/06/18 09:45:05;;;;;;;4.47;1.25;;;;;;;27.56;39.10;99480.89;1692214;84;21081;-63
2022/06/18 09:47:38;;;;;;;4.62;1.30;;;;;;;28.29;37.95;99473.21;1705854;84;21481;-63
2022/06/18 09:50:15;;;;;;;1.40;1.05;;;;;;;28.90;36.31;99477.49;1705727;84;21010;-65
2022/06/18 09:52:46;;;;;;;1.62;1.02;;;;;;;29.30;35.79;99472.83;1706194;84;20987;-65
2022/06/18 09:55:35;;;;;;;4.78;1.17;;;;;;;29.65;32.79;99459.17;1706166;84;21054;-64
2022/06/18 09:58:05;;;;;;;1.57;1.00;;;;;;;29.94;34.94;99463.95;1706032;84;21022;-62
2022/06/18 10:00:33;;;;;;;5.55;1.72;;;;;;;29.83;32.66;99459.98;1706327;84;21018;-67
2022/06/18 10:06:52;;;;;;;2.08;1.00;;;;;;;29.77;33.55;99468.41;1706096;84;20983;-68
2022/06/18 10:08:35;;;;;;;3.65;1.40;;;;;;;30.01;32.77;99456.66;1706137;84;21074;-63
2022/06/18 10:11:08;;;;;;;2.70;1.00;;;;;;;30.41;32.28;99458.88;1706158;84;21017;-61
2022/06/18 10:13:40;;;;;;;4.28;0.90;;;;;;;30.92;30.97;99465.50;1706158;84;21029;-63
2022/06/18 10:16:12;;;;;;;2.55;1.10;;;;;;;31.27;30.57;99467.05;1704701;84;20999;-66
2022/06/18 10:18:52;;;;;;;2.27;0.90;;;;;;;31.40;26.97;99462.93;1703081;84;20999;-66
2022/06/18 10:21:24;;;;;;;1.22;1.00;;;;;;;31.19;28.38;99447.76;1705839;84;21014;-60
2022/06/18 10:24:07;;;;;;;1.75;1.10;;;;;;;31.51;28.49;99457.38;1705286;84;20983;-62
2022/06/18 10:26:50;;;;;;;3.10;0.93;;;;;;;31.33;27.52;99447.19;1706216;84;21369;-61
2022/06/18 10:29:36;;;;;;;2.15;1.12;;;;;;;31.32;26.92;99434.64;1688677;83;21077;-62
2022/06/18 10:32:49;;;;;;;1.42;1.10;;;;;;;32.02;28.40;99423.77;1706152;84;20979;-66
2022/06/18 10:35:41;;;;;;;6.90;1.00;;;;;;;32.21;26.69;99417.04;1705576;84;21069;-62
2022/06/18 10:38:15;;;;;;;3.52;1.15;;;;;;;32.90;27.84;99415.91;1706130;84;21185;-62
2022/06/18 10:41:05;;;;;;;2.22;1.00;;;;;;;33.16;26.94;99405.77;1705305;84;21006;-60
2022/06/18 10:43:42;;;;;;;1.55;1.10;;;;;;;33.36;26.31;99412.31;1697943;84;21186;-61
2022/06/18 10:46:13;;;;;;;1.17;1.07;;;;;;;33.55;25.22;99417.19;1713834;84;21037;-64
2022/06/18 10:48:47;;;;;;;1.90;1.07;;;;;;;33.80;25.27;99410.24;1714564;84;21131;-63
2022/06/18 10:51:24;;;;;;;2.95;1.25;;;;;;;34.25;24.97;99400.69;1714422;84;21026;-59
2022/06/18 10:53:58;;;;;;;2.75;1.10;;;;;;;33.81;23.54;99397.42;1714429;84;21024;-62
2022/06/18 10:56:31;;;;;;;1.25;0.90;;;;;;;33.27;23.93;99398.70;1688087;84;21021;-64
2022/06/18 10:59:02;;;;;;;3.83;1.10;;;;;;;33.05;24.67;99390.17;1714483;84;20998;-64
2022/06/18 11:01:46;;;;;;;1.37;0.93;;;;;;;33.02;24.77;99392.84;1714162;84;21546;-64
2022/06/18 11:04:31;;;;;;;1.10;1.00;;;;;;;33.17;23.27;99397.09;1714410;84;21130;-65
2022/06/18 11:07:02;;;;;;;1.20;1.00;;;;;;;33.47;24.29;99397.06;1733457;83;21103;-63
2022/06/18 11:09:48;;;;;;;1.57;0.90;;;;;;;33.78;24.16;99395.16;1733297;82;21042;-59
2022/06/18 11:12:35;;;;;;;;;;;;;;;33.92;24.09;99391.16;1736025;83;21483;-61
2022/06/18 11:15:02;;;;;;;1.57;1.07;;;;;;;34.09;24.01;99387.72;1731518;83;20108;-62
2022/06/18 11:17:41;;;;;;;2.25;1.10;;;;;;;34.40;23.25;99396.96;1733354;83;21045;-63
2022/06/18 11:20:19;;;;;;;4.80;1.30;;;;;;;34.62;24.20;99389.52;1733139;82;20987;-65
2022/06/18 11:22:52;;;;;;;3.75;1.12;;;;;;;34.21;22.51;99378.50;1733420;82;21038;-65
2022/06/18 11:25:38;;;;;;;2.35;1.30;;;;;;;34.39;22.30;99382.19;1733538;82;20971;-65
2022/06/18 11:28:15;;;;;;;2.40;1.27;;;;;;;34.56;22.59;99386.37;1731349;83;21009;-61
2022/06/18 11:30:45;;;;;;;4.35;1.32;;;;;;;34.68;21.54;99378.17;1723284;83;21019;-60
2022/06/18 11:33:34;;;;;;;4.08;1.40;;;;;;;34.25;20.85;99381.59;1733367;82;21002;-63
2022/06/18 11:36:14;;;;;;;4.10;1.30;;;;;;;34.64;22.48;99390.11;1727741;83;20979;-63
2022/06/18 11:38:54;;;;;;;2.80;1.17;;;;;;;34.46;21.06;99380.16;1733424;83;21031;-62
2022/06/18 11:41:28;;;;;;;3.83;1.35;;;;;;;34.87;22.02;99382.41;1732303;83;20994;-62
2022/06/18 11:44:19;;;;;;;1.65;1.27;;;;;;;35.21;21.67;99384.48;1732759;83;21002;-60
2022/06/18 11:46:54;;;;;;;2.70;2.15;;;;;;;34.66;21.89;99377.04;1730054;81;21001;-61
2022/06/18 11:49:30;;;;;;;2.42;1.40;;;;;;;35.16;21.14;99368.77;1730107;83;20966;-62
2022/06/18 11:52:26;;;;;;;2.02;1.70;;;;;;;35.01;21.21;99372.03;1730312;83;21005;-66
2022/06/18 11:55:04;;;;;;;;;;;;;;;34.33;20.84;99351.73;1732865;83;21038;-59
2022/06/18 11:57:52;;;;;;;1.47;1.37;;;;;;;34.34;21.91;99349.30;1730346;83;20393;-66
2022/06/18 12:00:25;;;;;;;5.17;2.10;;;;;;;34.52;21.98;99346.42;1730281;83;21430;-59
2022/06/18 12:02:57;;;;;;;2.20;1.70;;;;;;;34.46;20.92;99343.84;1730337;81;21513;-64
2022/06/18 12:05:43;;;;;;;2.58;2.30;;;;;;;34.20;21.54;99336.44;1730150;81;20993;-61
2022/06/18 12:08:08;;;;;;;;;;;;;;;34.39;21.97;99336.59;1711915;83;21009;-61
2022/06/18 12:10:54;;;;;;;2.90;2.70;;;;;;;33.84;21.99;99330.96;1730302;83;20128;-66